Latest Weather Observations for Tennant Creek

IDD60801

Issued at 2:01 am CST Friday 31 March 2017 (issued every 30 minutes, with the page automatically refreshed every 10 minutes)

About weather observations | Map of weather stations | Latest weather observations for NT | Other Formats
Station Details ID: 015135 Name: TENNANT CREEK AIRPORT Lat: -19.64 Lon: 134.18 Height: 375.7 m
Data from the previous 72 hours. | See also: Recent months at Tennant Creek
Date/Time
CST
Temp
°C
App
Temp
°C
Dew
Point
°C
Rel
Hum
%
Delta-T
°C
Wind Press
QNH
hPa
Press
MSL
hPa
Rain since
9am
mm
Dir  Spd
km/h
Gust
km/h
Spd
kts
Gust
kts
31/02:00am 24.1 16.9 0.5 21 11.1 SE 28 43 15 23 1016.1 - 0.0
31/01:30am 24.5 18.3 2.0 23 10.9 ESE 24 39 13 21 1016.0 - 0.0
31/01:00am 25.0 18.9 2.6 23 11.0 SE 24 35 13 19 1016.1 - 0.0
31/12:30am 25.4 20.0 2.7 23 11.2 ESE 20 28 11 15 1016.4 - 0.0
31/12:00am 26.1 20.3 2.4 21 11.7 SE 22 35 12 19 1016.2 1013.6 0.0
 
Date/Time
CST
Temp
°C
App
Temp
°C
Dew
Point
°C
Rel
Hum
%
Delta-T
°C
Wind Press
QNH
hPa
Press
MSL
hPa
Rain since
9am
mm
Dir  Spd
km/h
Gust
km/h
Spd
kts
Gust
kts
30/11:30pm 26.6 20.4 2.3 20 12.0 SE 24 39 13 21 1016.2 - 0.0
30/11:00pm 27.2 21.1 2.9 21 12.2 SE 24 35 13 19 1016.1 - 0.0
30/10:30pm 27.8 21.4 3.0 20 12.5 ESE 26 39 14 21 1015.9 - 0.0
30/10:00pm 28.2 21.8 3.2 20 12.7 ESE 26 41 14 22 1015.7 - 0.0
30/09:30pm 28.7 22.4 3.8 20 12.8 ESE 26 35 14 19 1015.6 - 0.0
30/09:00pm 29.2 23.9 5.1 21 12.7 ESE 22 35 12 19 1015.4 1012.7 0.0
30/08:30pm 29.6 24.9 5.9 22 12.7 ESE 20 33 11 18 1014.8 - 0.0
30/08:00pm 30.1 25.0 5.9 21 13.0 ESE 22 32 12 17 1014.3 - 0.0
30/07:30pm 30.7 25.2 6.1 21 13.3 SE 24 35 13 19 1013.7 - 0.0
30/07:00pm 31.3 26.5 7.3 22 13.3 ESE 22 30 12 16 1013.1 - 0.0
30/06:30pm 31.9 26.2 6.6 20 13.9 SE 26 41 14 22 1012.6 - 0.0
30/06:00pm 32.9 27.4 6.0 18 14.7 ESE 24 35 13 19 1012.4 1009.7 0.0
30/05:30pm 33.7 28.2 5.7 17 15.3 ESE 24 33 13 18 1012.2 - 0.0
30/05:00pm 34.2 28.2 5.4 16 15.7 ESE 26 35 14 19 1012.2 - 0.0
30/04:30pm 34.3 28.5 4.6 15 16.0 ESE 24 39 13 21 1012.2 - 0.0
30/04:00pm 34.7 28.5 4.1 15 16.4 ESE 26 41 14 22 1012.0 - 0.0
30/03:30pm 34.7 27.9 3.3 14 16.6 ESE 28 44 15 24 1012.2 - 0.0
30/03:00pm 35.1 28.1 3.9 14 16.7 E 30 44 16 24 1012.3 1009.6 0.0
30/02:32pm 35.5 28.4 3.3 13 17.1 E 30 48 16 26 1012.4 - 0.0
30/02:30pm 34.9 27.6 2.7 13 16.9 E 30 44 16 24 1012.4 - 0.0
30/02:17pm 34.5 27.2 2.5 13 16.7 E 30 48 16 26 1012.5 - 0.0
30/02:00pm 34.8 27.5 2.4 13 16.9 E 30 46 16 25 1012.6 - 0.0
30/01:38pm 34.0 26.5 1.2 12 16.7 ESE 30 50 16 27 1012.9 - 0.0
30/01:30pm 33.9 26.9 1.8 13 16.5 ESE 28 43 15 23 1012.9 - 0.0
30/01:06pm 33.7 25.9 1.7 13 16.4 ESE 32 50 17 27 1013.2 - 0.0
30/01:00pm 34.0 25.9 1.2 12 16.7 E 33 48 18 26 1013.3 - 0.0
30/12:30pm 33.7 25.3 1.3 13 16.5 ESE 35 46 19 25 1013.6 - 0.0
30/12:08pm 33.3 24.8 0.6 12 16.4 ESE 35 54 19 29 1014.0 - 0.0
30/12:00pm 32.7 23.9 1.2 13 15.9 E 37 52 20 28 1014.1 1011.5 0.0
30/11:30am 32.6 24.0 0.5 13 16.0 E 35 50 19 27 1014.3 - 0.0
30/11:05am 32.4 23.5 0.9 13 15.8 ESE 37 59 20 32 1014.7 - 0.0
30/11:00am 31.8 22.8 0.2 13 15.6 ESE 37 52 20 28 1014.8 - 0.0
30/10:43am 31.6 23.4 0.1 13 15.5 ESE 33 52 18 28 1015.0 - 0.0
30/10:30am 31.7 23.7 0.4 13 15.5 ESE 32 46 17 25 1015.1 - 0.0
30/10:12am 30.9 22.8 -0.4 13 15.2 ESE 32 52 17 28 1015.1 - 0.0
30/10:00am 30.5 21.9 -0.1 14 14.9 ESE 35 50 19 27 1015.1 - 0.0
30/09:30am 29.8 20.7 -0.6 14 14.6 ESE 37 57 20 31 1014.7 - 0.0
30/09:00am 30.0 21.0 0.4 15 14.5 ESE 37 63 20 34 1014.3 1011.7 0.0
30/08:30am 29.7 21.1 0.0 14 14.4 ESE 35 54 19 29 1013.9 - 0.0
30/08:00am 29.2 20.2 0.1 15 14.1 ESE 37 59 20 32 1013.4 - 0.0
30/07:42am 29.1 21.2 1.1 16 13.8 ESE 32 50 17 27 1013.2 - 0.0
30/07:30am 29.2 21.7 1.3 16 13.8 ESE 30 46 16 25 1013.1 - 0.0
30/07:04am 29.3 21.8 1.5 16 13.8 ESE 30 48 16 26 1012.8 - 0.0
30/07:00am 29.4 21.6 1.8 17 13.8 ESE 32 46 17 25 1012.7 - 0.0
30/06:57am 29.3 22.4 2.3 17 13.6 ESE 28 46 15 25 1012.7 - 0.0
30/06:30am 29.6 23.0 4.0 19 13.3 ESE 28 44 15 24 1012.4 - 0.0
30/06:00am 29.6 24.6 6.3 23 12.6 ESE 22 30 12 16 1011.9 1009.3 0.0
30/05:30am 29.9 24.9 6.5 23 12.7 ESE 22 32 12 17 1011.4 - 0.0
30/05:00am 30.5 25.6 6.7 22 13.0 ESE 22 33 12 18 1010.9 - 0.0
30/04:30am 30.8 25.8 7.9 24 12.8 ESE 24 35 13 19 1010.6 - 0.0
30/04:00am 30.8 26.7 8.7 25 12.5 ESE 20 28 11 15 1010.4 - 0.0
30/03:30am 30.8 27.4 9.0 25 12.4 ESE 17 24 9 13 1010.4 - 0.0
30/03:00am 31.5 27.6 8.8 24 12.9 ESE 19 26 10 14 1010.2 1007.5 0.0
30/02:30am 31.4 27.7 9.5 25 12.6 ESE 19 26 10 14 1010.1 - 0.0
30/02:00am 32.1 28.4 9.6 25 13.0 ESE 19 30 10 16 1010.2 - 0.0
30/01:30am 32.4 29.2 9.8 25 13.1 ESE 17 24 9 13 1010.4 - 0.0
30/01:00am 31.7 29.5 10.7 27 12.3 ESE 13 20 7 11 1010.3 - 0.0
30/12:30am 32.1 30.8 11.1 27 12.4 ESE 9 15 5 8 1010.0 - 0.0
30/12:00am 32.9 31.1 10.9 26 13.0 SSE 11 17 6 9 1010.1 1007.4 0.0
 
Date/Time
CST
Temp
°C
App
Temp
°C
Dew
Point
°C
Rel
Hum
%
Delta-T
°C
Wind Press
QNH
hPa
Press
MSL
hPa
Rain since
9am
mm
Dir  Spd
km/h
Gust
km/h
Spd
kts
Gust
kts
29/11:30pm 32.5 31.6 11.5 27 12.5 SE 7 11 4 6 1010.3 - 0.0
29/11:00pm 33.0 31.7 11.1 26 13.0 S 9 15 5 8 1010.4 - 0.0
29/10:30pm 33.6 31.7 10.5 24 13.6 SSE 11 17 6 9 1010.0 - 0.0
29/10:00pm 33.6 32.2 10.8 24 13.5 SSE 9 13 5 7 1010.0 - 0.0
29/09:30pm 33.4 32.2 11.5 26 13.1 SE 9 13 5 7 1009.8 - 0.0
29/09:00pm 33.7 32.1 11.5 26 13.3 SSE 11 15 6 8 1009.1 1006.5 0.0
29/08:30pm 35.3 32.7 9.5 20 15.1 SE 13 17 7 9 1008.8 - 0.0
29/08:00pm 35.7 33.5 9.3 20 15.4 SE 11 17 6 9 1008.4 - 0.0
29/07:30pm 35.8 33.6 9.5 20 15.4 SE 11 15 6 8 1008.0 - 0.0
29/07:00pm 36.5 34.7 9.4 19 15.9 SE 9 15 5 8 1007.7 - 0.0
29/06:30pm 37.1 35.4 9.7 19 16.2 ESE 9 13 5 7 1007.4 - 0.0
29/06:00pm 38.1 34.7 9.0 17 17.1 ESE 17 26 9 14 1007.3 1004.6 0.0
29/05:30pm 38.9 36.0 8.2 15 17.8 SE 13 22 7 12 1007.1 - 0.0
29/05:00pm 39.0 35.4 8.4 15 17.8 E 17 24 9 13 1007.1 - 0.0
29/04:30pm 39.4 36.6 8.6 15 18.0 SE 13 22 7 12 1006.9 - 0.0
29/04:00pm 38.6 35.0 10.0 18 17.0 E 19 28 10 15 1006.8 - 0.0
29/03:30pm 39.1 35.1 8.3 15 17.9 SE 19 32 10 17 1006.9 - 0.0
29/03:00pm 40.3 36.8 8.6 15 18.7 SSE 17 24 9 13 1007.1 1004.4 0.0
29/02:30pm 39.0 35.3 9.6 17 17.4 ESE 19 26 10 14 1007.3 - 0.0
29/02:00pm 39.4 34.4 7.9 15 18.3 E 24 35 13 19 1007.5 - 0.0
29/01:30pm 39.6 36.2 9.2 16 18.0 E 17 33 9 18 1008.0 - 0.0
29/01:00pm 38.9 33.4 9.3 16 17.5 ENE 28 39 15 21 1008.4 - 0.0
29/12:30pm 38.8 34.3 10.0 17 17.2 E 24 43 13 23 1008.7 - 0.0
29/12:00pm 38.5 33.5 9.4 17 17.2 E 26 39 14 21 1009.2 1006.6 0.0
29/11:30am 37.7 32.0 9.9 18 16.5 E 30 43 16 23 1009.8 - 0.0
29/11:15am 37.4 31.6 9.6 18 16.4 E 30 48 16 26 1010.0 - 0.0
29/11:00am 36.7 30.5 10.0 19 15.8 E 33 48 18 26 1010.2 - 0.0
29/10:54am 36.9 30.8 9.8 19 16.0 E 32 50 17 27 1010.2 - 0.0
29/10:30am 36.4 30.2 10.0 20 15.6 E 33 46 18 25 1010.3 - 0.0
29/10:00am 35.6 29.4 9.4 20 15.3 E 32 46 17 25 1010.4 - 0.0
29/09:30am 34.3 29.2 9.3 21 14.5 ESE 26 35 14 19 1010.3 - 0.0
29/09:00am 33.4 27.4 8.8 22 14.1 E 30 41 16 22 1010.2 1007.5 0.0
29/08:30am 32.3 27.4 8.5 23 13.5 ESE 24 41 13 22 1010.2 - 0.0
29/08:00am 30.8 26.3 8.4 24 12.6 ESE 22 33 12 18 1010.0 - 0.0
29/07:30am 30.2 25.2 7.9 24 12.4 ESE 24 32 13 17 1009.8 - 0.0
29/07:00am 29.5 25.2 7.9 25 12.0 ESE 20 33 11 18 1009.5 - 0.0
29/06:30am 29.5 25.8 7.9 25 12.0 ESE 17 30 9 16 1009.1 - 0.0
29/06:00am 29.7 26.4 7.9 25 12.1 SE 15 20 8 11 1008.8 1006.2 0.0
29/05:30am 29.3 28.2 9.9 30 11.1 SSE 6 11 3 6 1008.7 - 0.0
29/05:00am 29.4 28.3 9.8 29 11.2 SE 6 9 3 5 1008.6 - 0.0
29/04:30am 30.2 28.5 9.8 28 11.7 SSE 9 13 5 7 1008.4 - 0.0
29/04:00am 30.8 29.1 9.8 27 12.1 SSE 9 15 5 8 1008.4 - 0.0
29/03:30am 30.9 29.5 12.2 31 11.2 SSE 11 15 6 8 1008.5 - 0.0
29/03:00am 27.3 29.5 16.5 51 6.8 CALM 0 6 0 3 1008.5 1005.9 0.0
29/02:30am 28.3 29.1 16.4 48 7.5 W 7 11 4 6 1008.5 - 0.0
29/02:00am 29.2 28.7 14.8 41 8.9 W 11 17 6 9 1008.7 - 0.0
29/01:30am 29.2 29.6 15.4 43 8.6 W 7 9 4 5 1009.0 - 0.0
29/01:00am 30.2 32.0 15.5 41 9.2 CALM 0 0 0 0 1009.2 - 0.0
29/12:30am 31.4 31.7 14.9 36 10.3 WNW 7 13 4 7 1009.5 - 0.0
29/12:00am 29.2 30.1 16.6 46 8.0 NW 7 9 4 5 1009.7 1007.0 0.0
 
Date/Time
CST
Temp
°C
App
Temp
°C
Dew
Point
°C
Rel
Hum
%
Delta-T
°C
Wind Press
QNH
hPa
Press
MSL
hPa
Rain since
9am
mm
Dir  Spd
km/h
Gust
km/h
Spd
kts
Gust
kts
28/11:30pm 29.5 29.0 15.0 41 9.0 NW 11 13 6 7 1009.5 - 0.0
28/11:00pm 30.1 32.1 16.0 42 8.9 CALM 0 0 0 0 1009.6 - 0.0
28/10:30pm 31.0 33.3 16.8 42 9.1 CALM 0 0 0 0 1009.7 - 0.0
28/10:00pm 31.0 32.3 15.2 38 9.9 ENE 2 7 1 4 1009.7 - 0.0
28/09:30pm 31.6 32.4 14.7 36 10.5 NNE 4 7 2 4 1009.1 - 0.0
28/09:00pm 34.0 33.2 12.9 28 12.9 S 9 11 5 6 1009.0 1006.4 0.0
28/08:30pm 33.2 34.3 16.6 37 10.7 NW 6 7 3 4 1008.7 - 0.0
28/08:00pm 33.4 34.0 15.2 33 11.5 NW 6 7 3 4 1008.2 - 0.0
28/07:30pm 34.1 34.6 14.9 31 12.1 N 6 7 3 4 1007.7 - 0.0
28/07:00pm 34.9 36.1 16.9 34 11.7 N 6 7 3 4 1007.3 - 0.0
28/06:30pm 36.3 35.5 12.8 24 14.5 NNE 9 13 5 7 1007.1 - 0.0
28/06:00pm 37.8 36.5 11.2 20 16.1 NNE 9 15 5 8 1006.9 1004.2 0.0
28/05:30pm 37.9 36.5 10.9 19 16.3 E 9 13 5 7 1007.0 - 0.0
28/05:00pm 38.4 36.4 10.1 18 16.9 NE 11 13 6 7 1007.2 - 0.0
28/04:30pm 39.0 37.2 10.7 18 17.1 NE 11 22 6 12 1007.2 - 0.0
28/04:00pm 38.9 35.5 10.5 18 17.1 NE 19 24 10 13 1007.4 - 0.0
28/03:30pm 38.7 35.1 9.8 17 17.2 NE 19 28 10 15 1007.4 - 0.0
28/03:00pm 39.3 35.9 9.0 16 17.9 NE 17 28 9 15 1007.7 1005.0 0.0
28/02:30pm 38.4 34.3 7.7 15 17.7 ENE 19 32 10 17 1008.1 - 0.0
28/02:00pm 38.8 34.5 9.4 17 17.4 NNE 22 39 12 21 1008.4 - 0.0
28/01:30pm 38.8 35.6 11.9 20 16.5 NE 20 30 11 16 1008.7 - 0.0
28/01:00pm 38.1 34.3 9.0 17 17.1 E 19 28 10 15 1009.1 - 0.0
28/12:30pm 38.0 34.2 9.9 18 16.7 ENE 20 30 11 16 1009.8 - 0.0
28/12:00pm 37.6 34.6 10.6 19 16.2 NE 17 24 9 13 1010.4 1007.7 0.0
28/11:30am 36.6 33.6 10.7 21 15.5 E 17 26 9 14 1010.7 - 0.0
28/11:00am 36.6 33.8 11.2 21 15.3 ESE 17 26 9 14 1011.0 - 0.0
28/10:30am 35.0 30.9 11.6 24 14.1 SE 24 28 13 15 1011.2 - 0.0
28/10:00am 35.1 33.6 14.1 28 13.1 SSE 15 24 8 13 1011.2 - 0.0
28/09:30am 33.7 34.3 16.8 36 10.9 S 9 13 5 7 1011.0 - 0.0
28/09:00am 32.7 34.0 17.5 40 9.9 E 7 11 4 6 1010.9 1008.3 0.0
28/08:30am 30.9 32.5 19.1 49 7.8 ESE 9 11 5 6 1010.8 - 0.0
28/08:00am 29.3 32.4 20.3 58 6.0 S 4 7 2 4 1010.5 - 0.0
28/07:30am 26.6 29.6 20.8 70 3.9 WSW 6 7 3 4 1010.2 - 0.0
28/07:00am 25.5 27.9 20.9 75 3.1 W 9 13 5 7 1009.9 - 0.0
28/06:30am 25.1 27.7 21.2 79 2.6 W 9 9 5 5 1009.5 - 0.0
28/06:00am 25.4 28.4 21.2 77 2.8 W 7 9 4 5 1009.1 1006.5 0.0
28/05:30am 26.3 28.8 21.1 73 3.5 WNW 9 11 5 6 1008.7 - 0.0
28/05:00am 26.3 29.5 21.2 73 3.4 WNW 6 7 3 4 1008.4 - 0.0
28/04:30am 27.6 31.5 21.1 67 4.4 NE 2 7 1 4 1008.6 - 0.0
28/04:00am 28.0 30.4 20.9 65 4.8 W 9 13 5 7 1008.6 - 0.0
28/03:30am 28.4 30.7 20.7 63 5.2 W 9 11 5 6 1008.7 - 0.0
28/03:00am 28.4 30.9 21.0 64 5.0 WNW 9 11 5 6 1008.9 1006.3 0.0
28/02:30am 28.9 31.9 21.2 63 5.2 WSW 7 9 4 5 1009.4 - 0.0
28/02:12am 29.6 32.1 21.0 60 5.8 WSW 9 13 5 7 1009.6 - 0.0
28/02:10am 29.6 32.1 21.0 60 5.8 WSW 9 13 5 7 1009.7 - 0.0

Other Formats:

Comma delimited format used in spreadsheet applications
http://www.bom.gov.au/fwo/IDD60801/IDD60801.94238.axf

JavaScript Object Notation format (JSON) in row-major order
http://www.bom.gov.au/fwo/IDD60801/IDD60801.94238.json